createdAt,value
2018-01-01T00:00:33.916Z,995.25
2018-01-01T00:01:42.748Z,995.26
2018-01-01T00:02:51.576Z,995.25
2018-01-01T00:04:00.505Z,995.28
2018-01-01T00:05:09.334Z,995.22
2018-01-01T00:06:18.165Z,995.12
2018-01-01T00:07:26.991Z,995.08
2018-01-01T00:08:35.817Z,995.06
2018-01-01T00:09:44.647Z,995.09
2018-01-01T00:10:53.476Z,995.08
2018-01-01T00:12:02.306Z,995.08
2018-01-01T00:13:11.134Z,995.02
2018-01-01T00:14:20.234Z,995.09
2018-01-01T00:15:29.062Z,995.09
2018-01-01T00:16:37.890Z,995.14
2018-01-01T00:17:46.719Z,995.23
2018-01-01T00:18:55.549Z,995.23
2018-01-01T00:20:04.383Z,995.24
2018-01-01T00:21:13.209Z,995.24
2018-01-01T00:22:22.038Z,995.27
2018-01-01T00:23:30.867Z,995.33
2018-01-01T00:24:39.746Z,995.3
2018-01-01T00:25:48.576Z,995.27
2018-01-01T00:26:57.407Z,995.44
2018-01-01T00:28:06.239Z,995.34
2018-01-01T00:29:15.064Z,995.29
2018-01-01T00:30:23.994Z,995.26
2018-01-01T00:31:32.823Z,995.23
2018-01-01T00:32:41.652Z,995.23
2018-01-01T00:33:50.480Z,995.22
2018-01-01T00:34:59.310Z,995.2
2018-01-01T00:36:08.439Z,995.22
2018-01-01T00:37:17.268Z,995.17
2018-01-01T00:38:26.098Z,995.16
2018-01-01T00:39:34.924Z,995.11
2018-01-01T00:40:43.754Z,995.02
2018-01-01T00:41:53.123Z,995.1
2018-01-01T00:43:01.949Z,994.94
2018-01-01T00:44:10.780Z,994.9
2018-01-01T00:45:19.623Z,994.93
2018-01-01T00:46:28.436Z,994.93
2018-01-01T00:47:37.262Z,994.95
2018-01-01T00:48:46.098Z,995
2018-01-01T00:49:54.927Z,995
2018-01-01T00:51:04.026Z,995.01
2018-01-01T00:52:12.854Z,995.06
2018-01-01T00:53:21.782Z,995.1
2018-01-01T00:54:30.613Z,995.01
2018-01-01T00:55:39.444Z,995.02
2018-01-01T00:56:48.544Z,994.91
2018-01-01T00:57:57.372Z,994.93
2018-01-01T00:59:06.252Z,994.89
2018-01-01T01:00:15.079Z,994.89
2018-01-01T01:01:23.908Z,994.9
2018-01-01T01:02:32.734Z,994.94
2018-01-01T01:03:41.562Z,994.97
2018-01-01T01:04:50.541Z,995
2018-01-01T01:05:59.372Z,995.01
2018-01-01T01:07:08.198Z,995.02
2018-01-01T01:08:17.027Z,995.02
2018-01-01T01:09:25.856Z,994.96
2018-01-01T01:10:35.062Z,995.02
2018-01-01T01:11:43.891Z,994.96
2018-01-01T01:12:52.718Z,995
2018-01-01T01:14:01.549Z,995.09
2018-01-01T01:15:10.385Z,995.11
2018-01-01T01:16:19.485Z,995.14
2018-01-01T01:17:28.310Z,995.15
2018-01-01T01:18:37.139Z,995.14
2018-01-01T01:19:45.969Z,995.01
2018-01-01T01:20:54.797Z,995
2018-01-01T01:22:03.625Z,995.04
2018-01-01T01:23:12.453Z,995.15
2018-01-01T01:24:21.281Z,995.16
2018-01-01T01:25:30.108Z,995.23
2018-01-01T01:26:38.936Z,995.24
2018-01-01T01:27:47.914Z,995.34
2018-01-01T01:28:56.745Z,995.32
2018-01-01T01:30:05.573Z,995.41
2018-01-01T01:31:14.402Z,995.35
2018-01-01T01:32:23.231Z,995.41
2018-01-01T01:33:32.059Z,995.52
2018-01-01T01:34:40.888Z,995.37
2018-01-01T01:35:49.718Z,995.34
2018-01-01T01:36:58.546Z,995.32
2018-01-01T01:38:07.375Z,995.36
2018-01-01T01:39:16.305Z,995.3
2018-01-01T01:40:25.133Z,995.29
2018-01-01T01:41:33.960Z,995.22
2018-01-01T01:42:42.789Z,995.24
2018-01-01T01:43:51.646Z,995.25
2018-01-01T01:45:00.626Z,995.24
2018-01-01T01:46:09.453Z,995.34
2018-01-01T01:47:18.298Z,995.31
2018-01-01T01:48:27.126Z,995.37
2018-01-01T01:49:35.953Z,995.37
2018-01-01T01:50:44.939Z,995.48
2018-01-01T01:51:53.764Z,995.37
2018-01-01T01:53:02.593Z,995.38
2018-01-01T01:54:11.421Z,995.36
2018-01-01T01:55:20.248Z,995.28
2018-01-01T01:56:29.175Z,995.35
2018-01-01T01:57:38.005Z,995.29
2018-01-01T01:58:46.836Z,995.4
2018-01-01T01:59:55.665Z,995.26
2018-01-01T02:01:04.494Z,995.34
2018-01-01T02:02:13.469Z,995.32
2018-01-01T02:03:22.298Z,995.32
2018-01-01T02:04:31.129Z,995.33
2018-01-01T02:05:39.955Z,995.4
2018-01-01T02:06:48.782Z,995.32
2018-01-01T02:07:58.096Z,995.42
2018-01-01T02:09:06.865Z,995.39
2018-01-01T02:10:15.694Z,995.39
2018-01-01T02:11:24.521Z,995.32
2018-01-01T02:12:33.349Z,995.4
2018-01-01T02:13:42.179Z,995.32
2018-01-01T02:14:51.010Z,995.34
2018-01-01T02:15:59.839Z,995.28
2018-01-01T02:17:08.670Z,995.28
2018-01-01T02:18:17.499Z,995.19
2018-01-01T02:19:26.628Z,995.22
2018-01-01T02:20:35.456Z,995.25
2018-01-01T02:21:44.287Z,995.19
2018-01-01T02:22:53.115Z,995.2
2018-01-01T02:24:01.942Z,995.17
2018-01-01T02:25:11.070Z,995.19
2018-01-01T02:26:19.899Z,995.18
2018-01-01T02:27:28.728Z,995.2
2018-01-01T02:28:37.556Z,995.13
2018-01-01T02:29:46.386Z,995.23
2018-01-01T02:30:55.265Z,995.19
2018-01-01T02:32:04.095Z,995.23
2018-01-01T02:33:12.926Z,995.2
2018-01-01T02:34:21.761Z,995.08
2018-01-01T02:35:30.854Z,995.14
2018-01-01T02:36:39.884Z,995.12
2018-01-01T02:37:48.709Z,995.17
2018-01-01T02:38:57.538Z,995.19
2018-01-01T02:40:06.370Z,995.14
2018-01-01T02:41:15.200Z,995.14
2018-01-01T02:42:24.028Z,995.12
2018-01-01T02:43:32.855Z,995.16
2018-01-01T02:44:41.683Z,995.19
2018-01-01T02:45:50.511Z,995.11
2018-01-01T02:46:59.339Z,995.27
2018-01-01T02:48:08.269Z,995.27
2018-01-01T02:49:17.100Z,995.18
2018-01-01T02:50:25.926Z,995.13
2018-01-01T02:51:34.805Z,995.23
2018-01-01T02:52:43.642Z,995.11
2018-01-01T02:53:52.743Z,995.16
2018-01-01T02:55:01.572Z,995.06
2018-01-01T02:56:10.400Z,995.09
2018-01-01T02:57:19.229Z,995.35
2018-01-01T02:58:28.061Z,995.14
2018-01-01T02:59:37.145Z,995.09
2018-01-01T03:00:46.247Z,995.1
2018-01-01T03:01:55.124Z,995.17
2018-01-01T03:03:03.953Z,995.12
2018-01-01T03:04:12.782Z,995.19
2018-01-01T03:05:21.759Z,995.11
2018-01-01T03:06:30.588Z,995.03
2018-01-01T03:07:39.415Z,995.24
2018-01-01T03:08:48.519Z,995.14
2018-01-01T03:09:57.346Z,995.08
2018-01-01T03:11:06.174Z,995.19
2018-01-01T03:12:15.004Z,995.14
2018-01-01T03:13:23.833Z,995.16
2018-01-01T03:14:32.661Z,995.05
2018-01-01T03:15:41.490Z,994.92
2018-01-01T03:16:50.417Z,994.96
2018-01-01T03:17:59.520Z,995.01
2018-01-01T03:19:08.348Z,994.86
2018-01-01T03:20:17.449Z,994.88
2018-01-01T03:21:26.277Z,994.83
2018-01-01T03:22:35.109Z,994.82
2018-01-01T03:23:43.937Z,994.82
2018-01-01T03:24:52.764Z,994.78
2018-01-01T03:26:01.595Z,994.97
2018-01-01T03:27:10.425Z,994.83
2018-01-01T03:28:19.505Z,994.78
2018-01-01T03:29:28.330Z,994.89
2018-01-01T03:30:37.161Z,994.93
2018-01-01T03:31:45.987Z,994.84
2018-01-01T03:32:54.816Z,994.89
2018-01-01T03:34:03.795Z,994.85
2018-01-01T03:35:12.621Z,994.81
2018-01-01T03:36:21.450Z,994.85
2018-01-01T03:37:30.279Z,994.73
2018-01-01T03:38:39.108Z,994.73
2018-01-01T03:39:48.235Z,994.64
2018-01-01T03:40:57.063Z,994.76
2018-01-01T03:42:05.890Z,994.69
2018-01-01T03:43:14.718Z,994.75
2018-01-01T03:44:23.547Z,994.76
2018-01-01T03:45:32.373Z,994.78
2018-01-01T03:46:41.205Z,994.79
2018-01-01T03:47:50.028Z,994.77
2018-01-01T03:48:58.858Z,994.83
2018-01-01T03:50:07.685Z,994.88
2018-01-01T03:51:16.663Z,994.83
2018-01-01T03:52:25.492Z,994.84
2018-01-01T03:53:34.322Z,994.75
2018-01-01T03:54:43.152Z,994.8
2018-01-01T03:55:51.975Z,994.76
2018-01-01T03:57:01.076Z,994.73
2018-01-01T03:58:09.904Z,994.91
2018-01-01T03:59:18.732Z,994.86
2018-01-01T04:00:27.562Z,994.82
2018-01-01T04:01:36.390Z,994.74
2018-01-01T04:02:45.215Z,994.76
2018-01-01T04:03:54.047Z,994.83
2018-01-01T04:05:02.875Z,994.76
2018-01-01T04:06:11.702Z,994.85
2018-01-01T04:07:20.530Z,995
2018-01-01T04:08:29.358Z,994.81
2018-01-01T04:09:38.188Z,994.79
2018-01-01T04:10:47.017Z,995.03
2018-01-01T04:11:55.847Z,994.85
2018-01-01T04:13:04.948Z,994.82
2018-01-01T04:14:14.197Z,994.86
2018-01-01T04:15:23.025Z,994.83
2018-01-01T04:16:31.853Z,994.8
2018-01-01T04:17:40.958Z,994.75
2018-01-01T04:18:49.786Z,994.86
2018-01-01T04:19:58.764Z,994.89
2018-01-01T04:21:07.592Z,994.7
2018-01-01T04:22:16.420Z,994.67
2018-01-01T04:23:25.252Z,994.76
2018-01-01T04:24:34.078Z,994.75
2018-01-01T04:25:42.905Z,994.69
2018-01-01T04:26:51.731Z,994.67
2018-01-01T04:28:00.560Z,994.69
2018-01-01T04:29:09.389Z,994.75
2018-01-01T04:30:18.217Z,994.7
2018-01-01T04:31:27.050Z,994.75
2018-01-01T04:32:35.878Z,994.82
2018-01-01T04:33:44.703Z,994.76
2018-01-01T04:34:53.531Z,994.75
2018-01-01T04:36:02.357Z,994.75
2018-01-01T04:37:11.486Z,994.85
2018-01-01T04:38:20.312Z,994.78
2018-01-01T04:39:29.413Z,994.82
2018-01-01T04:40:38.240Z,994.78
2018-01-01T04:41:47.070Z,994.78
2018-01-01T04:42:55.903Z,994.85
2018-01-01T04:44:04.726Z,994.78
2018-01-01T04:45:13.553Z,994.7
2018-01-01T04:46:22.654Z,994.78
2018-01-01T04:47:31.483Z,994.76
2018-01-01T04:48:40.465Z,994.71
2018-01-01T04:49:49.293Z,994.87
2018-01-01T04:50:58.394Z,994.85
2018-01-01T04:52:07.223Z,994.91
2018-01-01T04:53:16.049Z,994.79
2018-01-01T04:54:25.178Z,994.83
2018-01-01T04:55:34.007Z,994.77
2018-01-01T04:56:42.836Z,994.8
2018-01-01T04:57:51.941Z,994.89
2018-01-01T04:59:00.771Z,994.85
2018-01-01T05:00:09.597Z,994.99
2018-01-01T05:01:18.426Z,994.79
2018-01-01T05:02:27.255Z,994.74
2018-01-01T05:03:36.132Z,994.69
2018-01-01T05:04:44.959Z,994.79
2018-01-01T05:05:53.788Z,994.83
2018-01-01T05:07:02.618Z,994.82
2018-01-01T05:08:11.445Z,994.82
2018-01-01T05:09:20.273Z,994.89
2018-01-01T05:10:29.103Z,994.82
2018-01-01T05:11:37.933Z,994.96
2018-01-01T05:12:46.758Z,994.87
2018-01-01T05:13:55.863Z,994.89
2018-01-01T05:15:04.690Z,994.89
2018-01-01T05:16:13.516Z,995.06
2018-01-01T05:17:22.346Z,994.91
2018-01-01T05:18:31.175Z,995.15
2018-01-01T05:19:40.275Z,995.09
2018-01-01T05:20:49.100Z,995.14
2018-01-01T05:21:57.929Z,995.1
2018-01-01T05:23:06.857Z,995.3
2018-01-01T05:24:15.685Z,995.06
2018-01-01T05:25:24.514Z,995.2
2018-01-01T05:26:33.343Z,995.22
2018-01-01T05:27:42.169Z,995.26
2018-01-01T05:28:51.097Z,995.22
2018-01-01T05:29:59.924Z,995.24
2018-01-01T05:31:08.752Z,995.2
2018-01-01T05:32:17.580Z,995.17
2018-01-01T05:33:26.408Z,995.16
2018-01-01T05:34:35.391Z,995.23
2018-01-01T05:35:44.215Z,995.37
2018-01-01T05:36:53.042Z,995.32
2018-01-01T05:38:01.868Z,995.4
2018-01-01T05:39:10.697Z,995.35
2018-01-01T05:40:19.525Z,995.52
2018-01-01T05:41:28.352Z,995.39
2018-01-01T05:42:37.179Z,995.47
2018-01-01T05:43:46.008Z,995.47
2018-01-01T05:44:54.836Z,995.35
2018-01-01T05:46:04.184Z,995.36
2018-01-01T05:47:13.009Z,995.55
2018-01-01T05:48:21.837Z,995.6
2018-01-01T05:49:30.666Z,995.66
2018-01-01T05:50:39.492Z,995.71
2018-01-01T05:51:48.321Z,995.57
2018-01-01T05:52:57.147Z,995.66
2018-01-01T05:54:05.975Z,995.57
2018-01-01T05:55:14.806Z,995.76
2018-01-01T05:56:23.632Z,995.67
2018-01-01T05:57:32.736Z,995.67
2018-01-01T05:58:41.563Z,995.7
2018-01-01T05:59:50.390Z,995.77
2018-01-01T06:00:59.220Z,995.76
2018-01-01T06:02:08.048Z,996.16
2018-01-01T06:03:16.874Z,995.96
2018-01-01T06:04:25.703Z,996.22
2018-01-01T06:05:34.806Z,996.25
2018-01-01T06:06:43.632Z,996.23
2018-01-01T06:07:52.458Z,996.26
2018-01-01T06:09:01.316Z,996.23
2018-01-01T06:10:10.166Z,996.44
2018-01-01T06:11:18.991Z,996.34
2018-01-01T06:12:27.818Z,996.37
2018-01-01T06:13:36.642Z,996.36
2018-01-01T06:14:45.471Z,996.33
2018-01-01T06:15:54.296Z,996.33
2018-01-01T06:17:03.125Z,996.34
2018-01-01T06:18:11.953Z,996.63
2018-01-01T06:19:20.781Z,996.32
2018-01-01T06:20:29.609Z,996.53
2018-01-01T06:21:38.756Z,996.51
2018-01-01T06:22:47.582Z,996.54
2018-01-01T06:23:56.407Z,996.51
2018-01-01T06:25:05.504Z,996.55
2018-01-01T06:26:14.433Z,996.65
2018-01-01T06:27:23.260Z,996.6
2018-01-01T06:28:32.088Z,996.61
2018-01-01T06:29:40.966Z,996.67
2018-01-01T06:30:49.793Z,996.64
2018-01-01T06:31:58.623Z,996.68
2018-01-01T06:33:07.449Z,996.69
2018-01-01T06:34:16.275Z,996.76
2018-01-01T06:35:25.102Z,996.78
2018-01-01T06:36:33.928Z,996.79
2018-01-01T06:37:42.757Z,996.82
2018-01-01T06:38:51.586Z,996.75
2018-01-01T06:40:00.412Z,996.91
2018-01-01T06:41:09.239Z,996.96
2018-01-01T06:42:18.066Z,996.84
2018-01-01T06:43:27.045Z,997.01
2018-01-01T06:44:35.873Z,997
2018-01-01T06:45:44.701Z,997.08
2018-01-01T06:46:53.628Z,997.15
2018-01-01T06:48:02.455Z,997.17
2018-01-01T06:49:11.706Z,997.17
2018-01-01T06:50:20.532Z,997.18
2018-01-01T06:51:29.357Z,997.17
2018-01-01T06:52:38.185Z,997.17
2018-01-01T06:53:47.011Z,997.28
2018-01-01T06:54:55.837Z,997.29
2018-01-01T06:56:04.662Z,997.26
2018-01-01T06:57:13.488Z,997.27
2018-01-01T06:58:22.313Z,997.42
2018-01-01T06:59:31.138Z,997.32
2018-01-01T07:00:40.065Z,997.36
2018-01-01T07:01:48.893Z,997.28
2018-01-01T07:02:57.778Z,997.35
2018-01-01T07:04:06.934Z,997.48
2018-01-01T07:05:15.759Z,997.46
2018-01-01T07:06:24.636Z,997.38
2018-01-01T07:07:33.462Z,997.46
2018-01-01T07:08:42.569Z,997.45
2018-01-01T07:09:51.404Z,997.73
2018-01-01T07:11:00.525Z,997.62
2018-01-01T07:12:09.404Z,997.7
2018-01-01T07:13:18.230Z,997.6
2018-01-01T07:14:27.057Z,997.67
2018-01-01T07:15:35.885Z,997.71
2018-01-01T07:16:44.710Z,997.77
2018-01-01T07:17:53.738Z,997.65
2018-01-01T07:19:02.565Z,997.66
2018-01-01T07:20:11.392Z,997.8
2018-01-01T07:21:20.220Z,997.85
2018-01-01T07:22:29.047Z,997.8
2018-01-01T07:23:37.973Z,997.88
2018-01-01T07:24:46.800Z,997.86
2018-01-01T07:25:55.626Z,997.86
2018-01-01T07:27:04.730Z,997.83
2018-01-01T07:28:13.557Z,997.9
2018-01-01T07:29:22.386Z,997.87
2018-01-01T07:30:31.487Z,997.87
2018-01-01T07:31:40.312Z,998
2018-01-01T07:32:49.411Z,997.98
2018-01-01T07:33:58.237Z,997.97
2018-01-01T07:35:07.213Z,998.06
2018-01-01T07:36:16.041Z,998.04
2018-01-01T07:37:24.867Z,998.1
2018-01-01T07:38:33.694Z,998.02
2018-01-01T07:39:42.539Z,998.03
2018-01-01T07:40:51.665Z,998.1
2018-01-01T07:42:00.491Z,998.18
2018-01-01T07:43:09.317Z,998.24
2018-01-01T07:44:18.417Z,998.22
2018-01-01T07:45:27.241Z,998.29
2018-01-01T07:46:36.116Z,998.31
2018-01-01T07:47:44.942Z,998.34
2018-01-01T07:48:53.767Z,998.37
2018-01-01T07:50:02.594Z,998.38
2018-01-01T07:51:11.418Z,998.44
2018-01-01T07:52:20.545Z,998.55
2018-01-01T07:53:29.373Z,998.48
2018-01-01T07:54:38.199Z,998.55
2018-01-01T07:55:47.029Z,998.59
2018-01-01T07:56:55.858Z,998.61
2018-01-01T07:58:04.684Z,998.61
2018-01-01T07:59:13.788Z,998.62
2018-01-01T08:00:22.888Z,998.68
2018-01-01T08:01:31.716Z,998.69
2018-01-01T08:02:40.545Z,998.68
2018-01-01T08:03:49.697Z,998.7
2018-01-01T08:04:58.808Z,998.71
2018-01-01T08:06:07.637Z,998.76
2018-01-01T08:07:16.463Z,998.76
2018-01-01T08:08:25.289Z,998.79
2018-01-01T08:09:34.271Z,998.81
2018-01-01T08:10:43.641Z,998.88
2018-01-01T08:11:52.469Z,998.79
2018-01-01T08:13:01.296Z,998.83
2018-01-01T08:14:10.120Z,998.85
2018-01-01T08:15:19.096Z,998.87
2018-01-01T08:16:27.924Z,998.91
2018-01-01T08:17:36.840Z,998.87
2018-01-01T08:18:45.629Z,998.87
2018-01-01T08:19:54.454Z,999.03
2018-01-01T08:21:03.282Z,998.98
2018-01-01T08:22:12.108Z,998.98
2018-01-01T08:23:20.935Z,998.95
2018-01-01T08:24:29.761Z,999.03
2018-01-01T08:25:38.588Z,999
2018-01-01T08:26:47.565Z,999.05
2018-01-01T08:27:56.410Z,999.09
2018-01-01T08:29:05.788Z,999.12
2018-01-01T08:30:14.614Z,999.11
2018-01-01T08:31:23.441Z,999.11
2018-01-01T08:32:32.644Z,999.16
2018-01-01T08:33:41.469Z,999.13
2018-01-01T08:34:50.575Z,999.08
2018-01-01T08:35:59.399Z,999.12
2018-01-01T08:37:08.226Z,999.22
2018-01-01T08:38:17.204Z,999.15
2018-01-01T08:39:26.032Z,999.2
2018-01-01T08:40:34.858Z,999.35
2018-01-01T08:41:43.684Z,999.3
2018-01-01T08:42:52.512Z,999.2
2018-01-01T08:44:01.492Z,999.27
2018-01-01T08:45:10.322Z,999.32
2018-01-01T08:46:19.149Z,999.45
2018-01-01T08:47:27.974Z,999.31
2018-01-01T08:48:36.803Z,999.32
2018-01-01T08:49:46.062Z,999.37
2018-01-01T08:50:54.888Z,999.36
2018-01-01T08:52:03.714Z,999.44
2018-01-01T08:53:12.541Z,999.47
2018-01-01T08:54:21.368Z,999.54
2018-01-01T08:55:30.195Z,999.58
2018-01-01T08:56:39.294Z,999.59
2018-01-01T08:57:48.120Z,999.61
2018-01-01T08:58:56.948Z,999.58
2018-01-01T09:00:05.775Z,999.61
2018-01-01T09:01:14.604Z,999.66
2018-01-01T09:02:23.429Z,999.76
2018-01-01T09:03:32.255Z,999.66
2018-01-01T09:04:41.079Z,999.75
2018-01-01T09:05:49.910Z,999.73
2018-01-01T09:06:58.885Z,999.78
2018-01-01T09:08:07.712Z,999.87
2018-01-01T09:09:16.538Z,999.82
2018-01-01T09:10:25.367Z,999.87
2018-01-01T09:11:34.470Z,999.95
2018-01-01T09:12:43.346Z,999.88
2018-01-01T09:13:52.173Z,999.97
2018-01-01T09:15:01.002Z,999.84
2018-01-01T09:16:09.828Z,999.87
2018-01-01T09:17:18.654Z,999.92
2018-01-01T09:18:27.481Z,999.91
2018-01-01T09:19:36.356Z,999.96
2018-01-01T09:20:45.143Z,999.91
2018-01-01T09:21:53.969Z,999.87
2018-01-01T09:23:02.794Z,999.91
2018-01-01T09:24:11.773Z,999.92
2018-01-01T09:25:20.601Z,999.92
2018-01-01T09:26:29.428Z,999.96
2018-01-01T09:27:38.254Z,999.84
2018-01-01T09:28:47.080Z,999.91
2018-01-01T09:29:55.908Z,999.98
2018-01-01T09:31:04.734Z,999.91
2018-01-01T09:32:13.560Z,1000.09
2018-01-01T09:33:22.664Z,1000.06
2018-01-01T09:34:31.490Z,1000.09
2018-01-01T09:35:40.419Z,1000.01
2018-01-01T09:36:49.521Z,1000.14
2018-01-01T09:37:58.348Z,1000.07
2018-01-01T09:39:07.177Z,1000.14
2018-01-01T09:40:16.282Z,1000.03
2018-01-01T09:41:25.171Z,1000.05
2018-01-01T09:42:34.088Z,1000.19
2018-01-01T09:43:42.916Z,1000.12
2018-01-01T09:44:51.745Z,1000.27
2018-01-01T09:46:00.574Z,1000.17
2018-01-01T09:47:09.400Z,1000.21
2018-01-01T09:48:18.228Z,1000.12
2018-01-01T09:49:27.065Z,1000.09
2018-01-01T09:50:35.886Z,1000.22
2018-01-01T09:51:44.715Z,1000.17
2018-01-01T09:52:53.842Z,1000.14
2018-01-01T09:54:02.673Z,1000.06
2018-01-01T09:55:11.500Z,1000.16
2018-01-01T09:56:20.327Z,1000.12
2018-01-01T09:57:29.156Z,1000.11
2018-01-01T09:58:38.132Z,1000.12
2018-01-01T09:59:46.960Z,1000.14
2018-01-01T10:00:55.787Z,1000.08
2018-01-01T10:02:05.182Z,1000.13
2018-01-01T10:03:14.284Z,999.96
2018-01-01T10:04:23.263Z,1000.01
2018-01-01T10:05:32.092Z,1000.11
2018-01-01T10:06:40.921Z,1000.11
2018-01-01T10:07:49.878Z,1000.07
2018-01-01T10:08:58.708Z,1000.07
2018-01-01T10:10:07.687Z,1000.12
2018-01-01T10:11:16.514Z,1000.14
2018-01-01T10:12:25.343Z,1000.1
2018-01-01T10:13:34.173Z,1000.09
2018-01-01T10:14:43.271Z,1000.06
2018-01-01T10:15:52.149Z,1000.11
2018-01-01T10:17:01.252Z,1000.06
2018-01-01T10:18:10.081Z,1000.08
2018-01-01T10:19:18.911Z,1000.16
2018-01-01T10:20:28.016Z,1000.13
2018-01-01T10:21:37.404Z,1000.15
2018-01-01T10:22:46.235Z,1000.22
2018-01-01T10:23:55.068Z,1000.11
2018-01-01T10:25:03.897Z,1000.21
2018-01-01T10:26:12.728Z,1000.13
2018-01-01T10:27:21.561Z,1000.14
2018-01-01T10:28:30.669Z,1000.06
2018-01-01T10:29:39.500Z,1000.16
2018-01-01T10:30:48.327Z,1000.05
2018-01-01T10:31:57.159Z,1000.12
2018-01-01T10:33:06.236Z,1000.15
2018-01-01T10:34:15.066Z,1000.05
2018-01-01T10:35:23.896Z,1000.24
2018-01-01T10:36:32.723Z,1000.17
2018-01-01T10:37:41.823Z,1000.08
2018-01-01T10:38:50.656Z,1000.1
2018-01-01T10:39:59.491Z,1000.05
2018-01-01T10:41:08.312Z,1000.14
2018-01-01T10:42:17.151Z,1000.15
2018-01-01T10:43:25.973Z,1000.21
2018-01-01T10:44:34.952Z,1000.19
2018-01-01T10:45:43.780Z,1000.1
2018-01-01T10:46:52.612Z,1000.14
2018-01-01T10:48:01.440Z,1000.11
2018-01-01T10:49:10.269Z,1000.27
2018-01-01T10:50:19.149Z,1000.17
2018-01-01T10:51:27.979Z,1000.18
2018-01-01T10:52:36.809Z,1000.21
2018-01-01T10:53:45.635Z,1000.19
2018-01-01T10:54:55.010Z,1000.16
2018-01-01T10:56:04.146Z,1000.01
2018-01-01T10:57:12.978Z,1000.11
2018-01-01T10:58:21.806Z,1000.16
2018-01-01T10:59:30.637Z,1000.11
2018-01-01T11:00:39.459Z,1000.14
2018-01-01T11:01:48.288Z,1000.22
2018-01-01T11:02:57.116Z,1000.06
2018-01-01T11:04:05.945Z,1000.09
2018-01-01T11:05:15.075Z,1000.2
2018-01-01T11:06:23.876Z,1000.06
2018-01-01T11:07:32.713Z,1000.13
2018-01-01T11:08:41.546Z,1000.09
2018-01-01T11:09:50.380Z,1000.02
2018-01-01T11:10:59.500Z,1000.07
2018-01-01T11:12:08.461Z,1000
2018-01-01T11:13:17.293Z,1000.01
2018-01-01T11:14:26.121Z,999.98
2018-01-01T11:15:34.950Z,1000.14
2018-01-01T11:16:43.778Z,999.83
2018-01-01T11:17:52.606Z,999.95
2018-01-01T11:19:01.437Z,1000.01
2018-01-01T11:20:10.264Z,999.96
2018-01-01T11:21:19.093Z,999.96
2018-01-01T11:22:27.922Z,999.86
2018-01-01T11:23:36.751Z,999.94
2018-01-01T11:24:45.579Z,999.76
2018-01-01T11:25:54.410Z,999.99
2018-01-01T11:27:03.237Z,999.92
2018-01-01T11:28:12.065Z,999.79
2018-01-01T11:29:20.892Z,999.86
2018-01-01T11:30:29.723Z,999.75
2018-01-01T11:31:38.547Z,999.7
2018-01-01T11:32:47.377Z,999.7
2018-01-01T11:33:56.208Z,999.68
2018-01-01T11:35:05.035Z,999.89
2018-01-01T11:36:13.865Z,999.77
2018-01-01T11:37:22.696Z,999.79
2018-01-01T11:38:31.806Z,999.69
2018-01-01T11:39:40.635Z,999.7
2018-01-01T11:40:49.466Z,999.66
2018-01-01T11:41:58.298Z,999.61
2018-01-01T11:43:07.402Z,999.63
2018-01-01T11:44:16.331Z,999.57
2018-01-01T11:45:25.474Z,999.6
2018-01-01T11:46:34.574Z,999.56
2018-01-01T11:47:43.407Z,999.53
2018-01-01T11:48:52.235Z,999.5
2018-01-01T11:50:01.636Z,999.44
2018-01-01T11:51:10.464Z,999.51
2018-01-01T11:52:19.314Z,999.42
2018-01-01T11:53:28.144Z,999.42
2018-01-01T11:54:36.974Z,999.26
2018-01-01T11:55:45.953Z,999.65
2018-01-01T11:56:54.783Z,999.38
2018-01-01T11:58:03.613Z,999.38
2018-01-01T11:59:12.722Z,999.34
2018-01-01T12:00:21.823Z,999.28
2018-01-01T12:01:30.724Z,999.33
2018-01-01T12:02:39.554Z,999.29
2018-01-01T12:03:48.386Z,999.27
2018-01-01T12:04:57.214Z,999.24
2018-01-01T12:06:06.046Z,999.21
2018-01-01T12:07:15.031Z,999.2
2018-01-01T12:08:23.858Z,999.26
2018-01-01T12:09:32.686Z,999.23
2018-01-01T12:10:41.790Z,999.29
2018-01-01T12:11:50.896Z,999.29
2018-01-01T12:13:00.030Z,999.31
2018-01-01T12:14:08.853Z,999.25
2018-01-01T12:15:17.688Z,999.27
2018-01-01T12:16:26.512Z,999.29
2018-01-01T12:17:35.342Z,999.21
2018-01-01T12:18:44.171Z,999.25
2018-01-01T12:19:53.003Z,999.12
2018-01-01T12:21:01.833Z,999.26
2018-01-01T12:22:10.664Z,999.2
2018-01-01T12:23:19.492Z,999.19
2018-01-01T12:24:28.321Z,999.18
2018-01-01T12:25:37.152Z,999.14
2018-01-01T12:26:45.980Z,999.13
2018-01-01T12:27:54.811Z,999.18
2018-01-01T12:29:03.645Z,999.05
2018-01-01T12:30:12.576Z,999.14
2018-01-01T12:31:21.954Z,999.19
2018-01-01T12:32:30.783Z,999.23
2018-01-01T12:33:39.619Z,999.16
2018-01-01T12:34:48.720Z,999.18
2018-01-01T12:35:57.704Z,999.2
2018-01-01T12:37:06.840Z,999.12
2018-01-01T12:38:15.676Z,999.13
2018-01-01T12:39:24.508Z,999.13
2018-01-01T12:40:33.338Z,999.18
2018-01-01T12:41:42.266Z,999.11
2018-01-01T12:42:51.096Z,999.19
2018-01-01T12:44:00.200Z,999.05
2018-01-01T12:45:09.028Z,999.03
2018-01-01T12:46:17.856Z,999.01
2018-01-01T12:47:26.684Z,999.1
2018-01-01T12:48:35.513Z,998.95
2018-01-01T12:49:44.341Z,998.94
2018-01-01T12:50:53.170Z,998.9
2018-01-01T12:52:01.999Z,998.93
2018-01-01T12:53:10.979Z,998.8
2018-01-01T12:54:19.808Z,998.89
2018-01-01T12:55:28.910Z,998.98
2018-01-01T12:56:38.020Z,998.86
2018-01-01T12:57:46.870Z,998.94
2018-01-01T12:58:55.676Z,998.83
2018-01-01T13:00:04.501Z,998.85
2018-01-01T13:01:13.331Z,998.98
2018-01-01T13:02:22.162Z,999.02
2018-01-01T13:03:31.274Z,998.95
2018-01-01T13:04:40.154Z,999.16
2018-01-01T13:05:48.985Z,998.95
2018-01-01T13:06:57.816Z,999.07
2018-01-01T13:08:06.642Z,999.09
2018-01-01T13:09:15.745Z,999.07
2018-01-01T13:10:24.624Z,999.01
2018-01-01T13:11:33.456Z,999
2018-01-01T13:12:42.281Z,999.1
2018-01-01T13:13:51.112Z,999
2018-01-01T13:14:59.943Z,999.09
2018-01-01T13:16:08.874Z,999.03
2018-01-01T13:17:17.711Z,999.06
2018-01-01T13:18:26.547Z,999.09
2018-01-01T13:19:35.373Z,999.04
2018-01-01T13:20:44.203Z,999.1
2018-01-01T13:21:53.032Z,999.15
2018-01-01T13:23:01.862Z,999.08
2018-01-01T13:24:10.692Z,999.17
2018-01-01T13:25:19.797Z,999.03
2018-01-01T13:26:28.628Z,999.09
2018-01-01T13:27:37.757Z,999.13
2018-01-01T13:28:46.587Z,999.11
2018-01-01T13:29:55.416Z,999.11
2018-01-01T13:31:04.242Z,999
2018-01-01T13:32:13.071Z,999.1
2018-01-01T13:33:22.200Z,999.18
2018-01-01T13:34:31.030Z,999.12
2018-01-01T13:35:39.861Z,999.06
2018-01-01T13:36:48.970Z,999.1
2018-01-01T13:37:57.801Z,999.05
2018-01-01T13:39:06.684Z,999.01
2018-01-01T13:40:15.513Z,998.98
2018-01-01T13:41:24.647Z,998.98
2018-01-01T13:42:33.476Z,998.97
2018-01-01T13:43:42.306Z,999.01
2018-01-01T13:44:51.638Z,998.91
2018-01-01T13:46:00.466Z,998.91
2018-01-01T13:47:09.298Z,998.81
2018-01-01T13:48:18.126Z,998.84
2018-01-01T13:49:26.954Z,998.86
2018-01-01T13:50:36.057Z,998.93
2018-01-01T13:51:44.888Z,998.89
2018-01-01T13:52:53.719Z,998.9
2018-01-01T13:54:02.556Z,998.81
2018-01-01T13:55:11.633Z,998.85
2018-01-01T13:56:20.615Z,998.86
2018-01-01T13:57:29.449Z,998.94
2018-01-01T13:58:38.275Z,998.88
2018-01-01T13:59:47.103Z,998.87
2018-01-01T14:00:55.935Z,998.94
2018-01-01T14:02:05.053Z,998.79
2018-01-01T14:03:13.884Z,998.82
2018-01-01T14:04:22.711Z,998.83
2018-01-01T14:05:31.539Z,998.87
2018-01-01T14:06:40.368Z,998.83
2018-01-01T14:07:49.503Z,998.84
2018-01-01T14:08:58.330Z,998.9
2018-01-01T14:10:07.156Z,998.78
2018-01-01T14:11:15.986Z,998.83
2018-01-01T14:12:24.815Z,998.82
2018-01-01T14:13:33.644Z,998.82
2018-01-01T14:14:42.473Z,998.88
2018-01-01T14:15:51.303Z,998.85
2018-01-01T14:17:00.165Z,998.85
2018-01-01T14:18:08.960Z,998.86
2018-01-01T14:19:17.941Z,998.88